createdAt,value
2018-09-25T00:00:10.519Z,53.80
2018-09-25T00:02:37.287Z,53.70
2018-09-25T00:05:04.004Z,53.59
2018-09-25T00:07:30.676Z,53.47
2018-09-25T00:09:58.026Z,55.04
2018-09-25T00:12:24.816Z,54.79
2018-09-25T00:14:52.648Z,54.01
2018-09-25T00:17:19.318Z,53.49
2018-09-25T00:19:45.996Z,53.67
2018-09-25T00:22:12.664Z,54.40
2018-09-25T00:24:40.308Z,53.66
2018-09-25T00:27:06.972Z,54.47
2018-09-25T00:29:33.680Z,55.09
2018-09-25T00:34:32.639Z,55.96
2018-09-25T00:36:59.957Z,56.10
2018-09-25T00:39:27.126Z,55.62
2018-09-25T00:41:54.836Z,55.62
2018-09-25T00:44:21.810Z,56.55
2018-09-25T00:46:48.704Z,56.08
2018-09-25T00:49:15.666Z,55.59
2018-09-25T00:51:42.558Z,54.83
2018-09-25T00:54:10.267Z,55.39
2018-09-25T00:56:36.860Z,54.96
2018-09-25T00:59:03.380Z,55.92
2018-09-25T01:01:30.002Z,55.22
2018-09-25T01:03:56.610Z,55.37
2018-09-25T01:06:23.629Z,56.24
2018-09-25T01:08:50.319Z,56.76
2018-09-25T01:11:17.158Z,56.00
2018-09-25T01:13:44.349Z,55.84
2018-09-25T01:16:11.343Z,56.18
2018-09-25T01:18:37.951Z,56.88
2018-09-25T01:21:04.405Z,56.59
2018-09-25T01:23:31.120Z,56.17
2018-09-25T01:25:57.724Z,55.91
2018-09-25T01:28:24.361Z,57.06
2018-09-25T01:30:50.929Z,57.89
2018-09-25T01:33:17.911Z,56.92
2018-09-25T01:35:44.473Z,56.96
2018-09-25T01:40:43.090Z,55.42
2018-09-25T01:43:09.687Z,55.90
2018-09-25T01:45:36.604Z,55.01
2018-09-25T01:48:04.129Z,55.81
2018-09-25T01:50:31.814Z,55.10
2018-09-25T01:52:58.273Z,56.19
2018-09-25T01:55:25.406Z,56.12
2018-09-25T01:57:51.886Z,56.53
2018-09-25T02:00:18.709Z,56.29
2018-09-25T02:05:16.758Z,56.24
2018-09-25T02:07:43.396Z,55.71
2018-09-25T02:10:10.152Z,55.90
2018-09-25T02:12:36.664Z,55.94
2018-09-25T02:15:03.180Z,57.99
2018-09-25T02:17:29.666Z,58.12
2018-09-25T02:19:56.152Z,58.69
2018-09-25T02:22:22.823Z,57.67
2018-09-25T02:24:49.754Z,57.65
2018-09-25T02:27:16.293Z,57.30
2018-09-25T02:29:42.844Z,57.67
2018-09-25T02:32:09.467Z,58.00
2018-09-25T02:37:07.540Z,58.40
2018-09-25T02:39:34.056Z,59.33
2018-09-25T02:42:00.678Z,58.37
2018-09-25T02:44:27.237Z,57.88
2018-09-25T02:46:53.815Z,57.67
2018-09-25T02:49:20.380Z,58.56
2018-09-25T02:51:46.892Z,58.12
2018-09-25T02:54:13.409Z,57.53
2018-09-25T02:56:39.966Z,56.92
2018-09-25T02:59:06.517Z,58.14
2018-09-25T03:01:33.029Z,58.73
2018-09-25T03:03:59.518Z,57.20
2018-09-25T03:06:26.050Z,57.48
2018-09-25T03:08:52.544Z,57.76
2018-09-25T03:11:19.100Z,56.76
2018-09-25T03:13:46.696Z,57.83
2018-09-25T03:16:13.637Z,58.74
2018-09-25T03:18:40.098Z,58.04
2018-09-25T03:21:09.931Z,57.92
2018-09-25T03:23:36.484Z,57.83
2018-09-25T03:26:03.129Z,58.44
2018-09-25T03:28:30.031Z,59.07
2018-09-25T03:30:56.575Z,58.30
2018-09-25T03:33:23.112Z,58.66
2018-09-25T03:40:53.344Z,58.02
2018-09-25T03:43:19.825Z,57.03
2018-09-25T03:45:47.142Z,56.58
2018-09-25T03:48:14.790Z,57.58
2018-09-25T03:50:41.368Z,57.92
2018-09-25T03:53:07.930Z,57.80
2018-09-25T03:55:34.514Z,57.81
2018-09-25T03:58:01.071Z,57.41
2018-09-25T04:00:27.587Z,56.66
2018-09-25T04:02:54.118Z,56.60
2018-09-25T04:05:20.592Z,56.45
2018-09-25T04:07:47.064Z,55.72
2018-09-25T04:10:13.592Z,56.98
2018-09-25T04:12:40.124Z,56.12
2018-09-25T04:15:06.685Z,56.57
2018-09-25T04:17:33.151Z,57.60
2018-09-25T04:19:59.614Z,57.94
2018-09-25T04:22:26.086Z,59.96
2018-09-25T04:24:52.613Z,59.78
2018-09-25T04:27:19.133Z,59.08
2018-09-25T04:29:45.745Z,57.88
2018-09-25T04:32:12.240Z,58.16
2018-09-25T04:34:38.762Z,57.05
2018-09-25T04:37:06.062Z,57.26
2018-09-25T04:39:32.610Z,57.37
2018-09-25T04:41:59.102Z,56.89
2018-09-25T04:44:25.666Z,57.70
2018-09-25T04:46:52.267Z,57.29
2018-09-25T04:49:18.862Z,56.98
2018-09-25T04:51:46.352Z,56.62
2018-09-25T04:54:12.889Z,57.18
2018-09-25T04:56:39.466Z,56.15
2018-09-25T04:59:06.024Z,55.47
2018-09-25T05:04:04.966Z,57.03
2018-09-25T05:06:31.656Z,56.87
2018-09-25T05:08:58.279Z,56.80
2018-09-25T05:11:24.827Z,57.73
2018-09-25T05:13:51.405Z,59.02
2018-09-25T05:16:17.941Z,58.71
2018-09-25T05:18:44.523Z,57.18
2018-09-25T05:21:11.057Z,57.56
2018-09-25T05:23:37.640Z,57.76
2018-09-25T05:26:04.198Z,59.17
2018-09-25T05:28:30.748Z,57.76
2018-09-25T05:30:57.256Z,57.64
2018-09-25T05:35:55.572Z,59.61
2018-09-25T05:38:22.089Z,59.48
2018-09-25T05:40:48.624Z,58.71
2018-09-25T05:43:15.560Z,58.72
2018-09-25T05:45:42.076Z,59.09
2018-09-25T05:48:08.567Z,58.77
2018-09-25T05:50:35.254Z,58.35
2018-09-25T05:53:01.818Z,57.57
2018-09-25T05:55:28.296Z,57.93
2018-09-25T05:57:54.944Z,57.85
2018-09-25T06:00:21.521Z,58.61
2018-09-25T06:02:48.405Z,57.15
2018-09-25T06:05:14.928Z,57.39
2018-09-25T06:07:41.446Z,57.70
2018-09-25T06:10:07.932Z,58.55
2018-09-25T06:12:34.513Z,57.56
2018-09-25T06:15:01.487Z,58.38
2018-09-25T06:17:27.933Z,58.52
2018-09-25T06:19:54.507Z,58.18
2018-09-25T06:22:21.015Z,56.14
2018-09-25T06:24:47.523Z,57.07
2018-09-25T06:27:14.149Z,57.47
2018-09-25T06:29:40.710Z,57.15
2018-09-25T06:32:07.226Z,56.33
2018-09-25T06:34:33.777Z,56.36
2018-09-25T06:37:00.404Z,56.06
2018-09-25T06:39:26.951Z,56.08
2018-09-25T06:41:53.440Z,55.73
2018-09-25T06:44:19.925Z,55.42
2018-09-25T06:46:46.444Z,54.93
2018-09-25T06:49:12.996Z,55.59
2018-09-25T06:51:39.645Z,54.95
2018-09-25T06:54:06.196Z,54.48
2018-09-25T06:56:32.701Z,55.30
2018-09-25T06:58:59.161Z,54.21
2018-09-25T07:01:25.696Z,52.55
2018-09-25T07:03:52.469Z,52.87
2018-09-25T07:06:19.580Z,53.55
2018-09-25T07:08:46.064Z,53.77
2018-09-25T07:11:12.572Z,52.75
2018-09-25T07:13:39.082Z,52.87
2018-09-25T07:16:05.728Z,48.96
2018-09-25T07:18:32.203Z,52.19
2018-09-25T07:20:58.702Z,51.49
2018-09-25T07:23:25.188Z,51.88
2018-09-25T07:25:51.949Z,49.40
2018-09-25T07:28:18.448Z,49.09
2018-09-25T07:30:44.972Z,49.26
2018-09-25T07:33:11.665Z,49.10
2018-09-25T07:35:38.192Z,46.95
2018-09-25T07:38:04.775Z,45.07
2018-09-25T07:40:31.319Z,46.44
2018-09-25T07:42:57.868Z,47.08
2018-09-25T07:45:24.350Z,46.08
2018-09-25T07:47:51.273Z,42.74
2018-09-25T07:50:17.748Z,42.61
2018-09-25T07:52:44.225Z,44.40
2018-09-25T07:55:12.656Z,43.08
2018-09-25T07:57:39.096Z,42.52
2018-09-25T08:00:05.672Z,42.50
2018-09-25T08:02:32.203Z,43.22
2018-09-25T08:04:58.747Z,42.55
2018-09-25T08:07:25.202Z,43.51
2018-09-25T08:09:51.693Z,43.13
2018-09-25T08:12:18.230Z,45.17
2018-09-25T08:14:44.665Z,44.99
2018-09-25T08:17:11.144Z,44.04
2018-09-25T08:19:37.736Z,41.26
2018-09-25T08:22:04.211Z,41.34
2018-09-25T08:24:30.711Z,43.10
2018-09-25T08:26:57.148Z,39.45
2018-09-25T08:29:23.606Z,41.10
2018-09-25T08:31:50.125Z,39.06
2018-09-25T08:34:16.560Z,39.59
2018-09-25T08:36:43.043Z,39.66
2018-09-25T08:39:09.562Z,41.90
2018-09-25T08:41:36.165Z,38.89
2018-09-25T08:44:02.740Z,36.78
2018-09-25T08:46:29.290Z,36.64
2018-09-25T08:48:55.760Z,37.62
2018-09-25T08:51:22.362Z,36.18
2018-09-25T08:53:48.850Z,35.67
2018-09-25T08:56:15.325Z,33.97
2018-09-25T08:58:41.820Z,31.95
2018-09-25T09:01:08.320Z,32.43
2018-09-25T09:03:35.097Z,33.73
2018-09-25T09:06:01.539Z,31.38
2018-09-25T09:08:28.134Z,33.30
2018-09-25T09:10:54.726Z,32.79
2018-09-25T09:13:21.768Z,32.24
2018-09-25T09:15:48.256Z,32.12
2018-09-25T09:18:14.892Z,32.29
2018-09-25T09:20:41.354Z,31.74
2018-09-25T09:23:07.825Z,30.54
2018-09-25T09:25:34.303Z,29.86
2018-09-25T09:28:00.832Z,30.18
2018-09-25T09:30:27.423Z,29.51
2018-09-25T09:32:54.393Z,27.63
2018-09-25T09:35:20.882Z,27.57
2018-09-25T09:37:47.439Z,26.67
2018-09-25T09:40:13.983Z,25.32
2018-09-25T09:42:40.505Z,27.81
2018-09-25T09:45:07.034Z,26.29
2018-09-25T09:47:33.481Z,24.29
2018-09-25T09:49:59.931Z,23.89
2018-09-25T09:52:26.451Z,24.80
2018-09-25T09:54:54.429Z,25.81
2018-09-25T09:57:20.945Z,25.05
2018-09-25T09:59:47.610Z,25.40
2018-09-25T10:02:14.089Z,24.86
2018-09-25T10:04:40.621Z,24.96
2018-09-25T10:07:07.159Z,24.33
2018-09-25T10:09:33.857Z,22.17
2018-09-25T10:12:00.353Z,24.11
2018-09-25T10:14:26.810Z,21.66
2018-09-25T10:16:54.472Z,23.53
2018-09-25T10:19:20.940Z,24.52
2018-09-25T10:21:47.425Z,24.94
2018-09-25T10:24:14.091Z,23.40
2018-09-25T10:26:40.589Z,24.70
2018-09-25T10:29:07.098Z,22.98
2018-09-25T10:31:33.635Z,23.92
2018-09-25T10:34:00.193Z,23.77
2018-09-25T10:38:58.621Z,24.75
2018-09-25T10:41:25.288Z,23.41
2018-09-25T10:43:52.018Z,24.90
2018-09-25T10:46:18.649Z,25.67
2018-09-25T10:48:45.128Z,23.74
2018-09-25T10:51:11.624Z,22.73
2018-09-25T10:53:38.124Z,24.38
2018-09-25T10:56:04.722Z,22.98
2018-09-25T10:58:31.264Z,22.16
2018-09-25T11:00:57.770Z,22.01
2018-09-25T11:03:24.371Z,22.37
2018-09-25T11:05:50.912Z,20.79
2018-09-25T11:08:17.460Z,21.80
2018-09-25T11:10:44.104Z,22.67
2018-09-25T11:13:10.566Z,21.44
2018-09-25T11:15:37.156Z,22.50
2018-09-25T11:18:03.692Z,22.06
2018-09-25T11:20:30.203Z,21.54
2018-09-25T11:22:56.777Z,23.23
2018-09-25T11:25:23.267Z,25.22
2018-09-25T11:27:49.939Z,24.93
2018-09-25T11:30:16.458Z,23.37
2018-09-25T11:32:42.978Z,22.35
2018-09-25T11:35:09.588Z,21.17
2018-09-25T11:37:36.284Z,20.44
2018-09-25T11:40:02.754Z,20.94
2018-09-25T11:42:29.284Z,20.02
2018-09-25T11:44:56.724Z,22.04
2018-09-25T11:47:23.228Z,21.74
2018-09-25T11:49:49.755Z,19.75
2018-09-25T11:52:16.381Z,21.18
2018-09-25T11:54:42.884Z,19.57
2018-09-25T11:57:09.443Z,21.08
2018-09-25T11:59:35.994Z,18.94
2018-09-25T12:02:02.543Z,20.04
2018-09-25T12:04:29.244Z,20.29
2018-09-25T12:06:56.034Z,18.46
2018-09-25T12:09:22.610Z,22.00
2018-09-25T12:11:49.109Z,19.63
2018-09-25T12:14:15.789Z,18.87
2018-09-25T12:16:42.398Z,19.15
2018-09-25T12:19:08.913Z,20.70
2018-09-25T12:21:35.496Z,20.22
2018-09-25T12:24:02.025Z,20.66
2018-09-25T12:26:28.532Z,21.25
2018-09-25T12:28:55.104Z,18.06
2018-09-25T12:31:21.603Z,21.30
2018-09-25T12:33:48.208Z,20.34
2018-09-25T12:36:14.813Z,20.15
2018-09-25T12:38:41.730Z,21.00
2018-09-25T12:41:08.419Z,19.92
2018-09-25T12:43:35.017Z,21.62
2018-09-25T12:46:01.811Z,18.95
2018-09-25T12:48:28.645Z,19.60
2018-09-25T12:50:55.284Z,20.58
2018-09-25T12:53:21.872Z,21.38
2018-09-25T12:55:48.409Z,20.19
2018-09-25T12:58:14.941Z,19.69
2018-09-25T13:00:41.499Z,21.78
2018-09-25T13:03:08.063Z,22.22
2018-09-25T13:05:34.516Z,21.81
2018-09-25T13:08:00.981Z,21.92
2018-09-25T13:10:27.521Z,22.93
2018-09-25T13:12:54.467Z,23.31
2018-09-25T13:15:21.450Z,21.91
2018-09-25T13:17:47.931Z,19.22
2018-09-25T13:20:14.411Z,19.40
2018-09-25T13:22:40.952Z,19.38
2018-09-25T13:25:07.524Z,20.51
2018-09-25T13:27:34.211Z,21.09
2018-09-25T13:30:00.697Z,20.27
2018-09-25T13:32:27.177Z,21.84
2018-09-25T13:34:54.115Z,20.68
2018-09-25T13:37:20.724Z,20.51
2018-09-25T13:39:47.886Z,22.42
2018-09-25T13:42:14.476Z,23.44
2018-09-25T13:44:41.244Z,22.44
2018-09-25T13:47:07.759Z,23.15
2018-09-25T13:49:34.312Z,22.50
2018-09-25T13:52:00.752Z,22.40
2018-09-25T13:54:27.307Z,23.96
2018-09-25T13:56:53.815Z,21.62
2018-09-25T13:59:20.313Z,20.95
2018-09-25T14:01:46.826Z,21.77
2018-09-25T14:04:13.364Z,20.88
2018-09-25T14:06:39.868Z,20.77
2018-09-25T14:09:06.360Z,21.55
2018-09-25T14:11:32.874Z,24.61
2018-09-25T14:13:59.368Z,22.77
2018-09-25T14:16:25.847Z,23.64
2018-09-25T14:18:52.357Z,23.74
2018-09-25T14:21:18.846Z,23.73
2018-09-25T14:23:45.379Z,22.55
2018-09-25T14:26:12.923Z,21.20
2018-09-25T14:28:39.392Z,23.18
2018-09-25T14:31:05.899Z,23.58
2018-09-25T14:33:32.425Z,21.81
2018-09-25T14:35:58.892Z,21.48
2018-09-25T14:38:25.413Z,23.79
2018-09-25T14:40:51.919Z,21.78
2018-09-25T14:43:18.805Z,21.59
2018-09-25T14:45:45.614Z,22.30
2018-09-25T14:48:12.148Z,22.31
2018-09-25T14:50:38.663Z,22.99
2018-09-25T14:53:05.235Z,22.32
2018-09-25T14:55:31.748Z,21.88
2018-09-25T14:57:58.244Z,22.84
2018-09-25T15:00:24.753Z,22.41
2018-09-25T15:02:51.342Z,22.66
2018-09-25T15:05:18.876Z,21.77
2018-09-25T15:07:45.373Z,23.21
2018-09-25T15:10:12.862Z,22.72
2018-09-25T15:12:39.425Z,22.71
2018-09-25T15:15:05.907Z,22.56
2018-09-25T15:17:32.542Z,24.35
2018-09-25T15:19:59.130Z,23.69
2018-09-25T15:22:28.000Z,22.85
2018-09-25T15:24:54.604Z,23.47
2018-09-25T15:27:21.111Z,23.80
2018-09-25T15:29:48.662Z,25.57
2018-09-25T15:32:15.242Z,24.54
2018-09-25T15:34:41.714Z,24.96
2018-09-25T15:37:08.184Z,25.61
2018-09-25T15:39:34.669Z,26.04
2018-09-25T15:42:01.186Z,26.67
2018-09-25T15:44:27.935Z,26.67
2018-09-25T15:46:54.633Z,26.26
2018-09-25T15:49:21.201Z,26.37
2018-09-25T15:51:48.336Z,26.42
2018-09-25T15:54:16.252Z,27.43
2018-09-25T15:56:42.719Z,27.28
2018-09-25T15:59:09.173Z,28.10
2018-09-25T16:01:35.652Z,28.04
2018-09-25T16:04:02.096Z,26.94
2018-09-25T16:06:28.612Z,28.66
2018-09-25T16:08:55.091Z,27.68
2018-09-25T16:11:21.742Z,28.74
2018-09-25T16:13:48.211Z,28.89
2018-09-25T16:16:14.710Z,28.67
2018-09-25T16:18:41.288Z,30.32
2018-09-25T16:21:07.774Z,31.67
2018-09-25T16:23:34.279Z,29.75
2018-09-25T16:26:00.754Z,30.89
2018-09-25T16:28:27.434Z,28.71
2018-09-25T16:30:54.346Z,30.15
2018-09-25T16:33:20.853Z,30.84
2018-09-25T16:35:47.336Z,31.70
2018-09-25T16:40:46.978Z,30.77
2018-09-25T16:43:13.463Z,32.67
2018-09-25T16:45:40.064Z,32.16
2018-09-25T16:48:06.694Z,32.83
2018-09-25T16:50:33.180Z,32.41
2018-09-25T16:52:59.692Z,34.31
2018-09-25T16:55:26.578Z,34.75
2018-09-25T16:57:53.074Z,34.90
2018-09-25T17:00:19.779Z,35.85
2018-09-25T17:02:46.477Z,35.52
2018-09-25T17:05:13.138Z,35.10
2018-09-25T17:07:39.617Z,35.98
2018-09-25T17:10:06.119Z,36.41
2018-09-25T17:12:32.587Z,37.11
2018-09-25T17:14:59.499Z,37.06
2018-09-25T17:17:26.022Z,37.65
2018-09-25T17:19:52.508Z,38.35
2018-09-25T17:22:18.986Z,37.16
2018-09-25T17:24:46.198Z,38.48
2018-09-25T17:27:12.734Z,37.36
2018-09-25T17:29:39.695Z,37.87
2018-09-25T17:37:31.144Z,38.18
2018-09-25T17:39:57.824Z,38.53
2018-09-25T17:42:24.360Z,39.20
2018-09-25T17:44:50.893Z,40.01
2018-09-25T17:47:17.420Z,40.72
2018-09-25T17:49:43.876Z,41.40
2018-09-25T17:52:10.447Z,40.74
2018-09-25T17:54:37.173Z,41.95
2018-09-25T17:57:03.749Z,40.61
2018-09-25T17:59:30.541Z,41.61
2018-09-25T18:01:57.698Z,40.91
2018-09-25T18:04:24.627Z,40.48
2018-09-25T18:06:51.154Z,40.88
2018-09-25T18:09:17.701Z,41.39
2018-09-25T18:11:44.674Z,41.22
2018-09-25T18:14:11.153Z,42.06
2018-09-25T18:16:37.674Z,42.38
2018-09-25T18:19:04.172Z,42.26
2018-09-25T18:21:30.694Z,43.50
2018-09-25T18:23:57.429Z,42.67
2018-09-25T18:26:23.906Z,43.16
2018-09-25T18:28:50.468Z,43.70
2018-09-25T18:31:16.948Z,43.50
2018-09-25T18:33:43.419Z,43.75
2018-09-25T18:36:09.896Z,43.46
2018-09-25T18:43:40.168Z,42.90
2018-09-25T18:46:06.874Z,42.41
2018-09-25T18:48:33.347Z,44.09
2018-09-25T18:53:31.884Z,43.72
2018-09-25T18:55:58.386Z,44.14
2018-09-25T18:58:25.299Z,44.35
2018-09-25T19:00:51.780Z,44.10
2018-09-25T19:03:18.425Z,45.20
2018-09-25T19:05:45.898Z,45.64
2018-09-25T19:08:12.441Z,45.71
2018-09-25T19:10:39.006Z,45.44
2018-09-25T19:13:05.860Z,45.42
2018-09-25T19:15:34.670Z,45.13
2018-09-25T19:18:01.166Z,45.23
2018-09-25T19:20:28.323Z,45.27
2018-09-25T19:22:54.845Z,45.29
2018-09-25T19:25:21.383Z,44.59
2018-09-25T19:27:47.985Z,45.49
2018-09-25T19:30:15.673Z,46.41
2018-09-25T19:32:42.886Z,46.99
2018-09-25T19:35:10.040Z,47.32
2018-09-25T19:37:37.002Z,47.78
2018-09-25T19:40:04.854Z,47.49
2018-09-25T19:42:31.393Z,48.45
2018-09-25T19:44:57.943Z,47.83
2018-09-25T19:47:24.506Z,48.38
2018-09-25T19:49:50.992Z,48.80
2018-09-25T19:52:17.509Z,48.40
2018-09-25T19:54:44.146Z,48.50
2018-09-25T19:57:11.764Z,48.36
2018-09-25T19:59:40.388Z,47.95
2018-09-25T20:02:07.078Z,47.85
2018-09-25T20:04:33.774Z,48.19
2018-09-25T20:07:03.969Z,50.00
2018-09-25T20:09:33.327Z,49.68
2018-09-25T20:12:00.132Z,50.13
2018-09-25T20:14:27.280Z,50.29
2018-09-25T20:16:54.115Z,49.92
2018-09-25T20:19:21.537Z,50.62
2018-09-25T20:21:48.309Z,51.00
2018-09-25T20:24:14.835Z,50.87
2018-09-25T20:26:41.308Z,50.65
2018-09-25T20:29:08.858Z,51.43
2018-09-25T20:31:35.652Z,51.59
2018-09-25T20:34:04.574Z,51.60
2018-09-25T20:36:33.108Z,52.32
2018-09-25T20:39:00.340Z,52.15
2018-09-25T20:41:27.996Z,52.44
2018-09-25T20:46:26.466Z,52.56
2018-09-25T20:48:52.981Z,52.21
2018-09-25T20:51:19.426Z,52.07
2018-09-25T20:53:45.968Z,53.06
2018-09-25T20:56:12.490Z,52.00
2018-09-25T20:58:39.201Z,52.48
2018-09-25T21:03:39.099Z,52.43
2018-09-25T21:06:05.612Z,52.68
2018-09-25T21:08:32.054Z,51.96
2018-09-25T21:10:58.551Z,52.70
2018-09-25T21:13:25.048Z,52.45
2018-09-25T21:15:51.711Z,52.76
2018-09-25T21:18:18.368Z,53.62
2018-09-25T21:20:44.903Z,53.92
2018-09-25T21:23:11.395Z,53.73
2018-09-25T21:25:37.896Z,53.27
2018-09-25T21:28:04.394Z,54.05
2018-09-25T21:30:31.966Z,53.17
2018-09-25T21:32:58.474Z,53.46
2018-09-25T21:35:24.983Z,53.58
2018-09-25T21:37:51.498Z,53.85
2018-09-25T21:40:18.014Z,53.74
2018-09-25T21:42:44.478Z,53.99
2018-09-25T21:45:11.098Z,53.85
2018-09-25T21:52:45.061Z,54.45
2018-09-25T21:55:11.896Z,54.53
2018-09-25T21:57:38.484Z,54.43
2018-09-25T22:02:36.852Z,54.86
2018-09-25T22:05:03.384Z,54.29
2018-09-25T22:07:29.835Z,54.97
2018-09-25T22:09:56.344Z,55.25
2018-09-25T22:12:22.827Z,55.58
2018-09-25T22:14:49.442Z,55.31
2018-09-25T22:17:15.933Z,55.42
2018-09-25T22:19:42.492Z,56.90
2018-09-25T22:22:09.038Z,57.49
2018-09-25T22:24:37.027Z,57.98
2018-09-25T22:27:03.870Z,57.76
2018-09-25T22:29:30.496Z,57.91
2018-09-25T22:31:57.057Z,57.52
2018-09-25T22:34:23.544Z,56.78
2018-09-25T22:36:50.193Z,56.96
2018-09-25T22:41:49.239Z,57.95
2018-09-25T22:44:15.811Z,57.65
2018-09-25T22:46:43.200Z,57.09
2018-09-25T22:49:09.855Z,57.17
2018-09-25T22:51:36.394Z,57.14
2018-09-25T22:54:02.946Z,57.14
2018-09-25T22:56:29.744Z,56.49
2018-09-25T22:58:56.208Z,56.76
2018-09-25T23:01:22.706Z,57.61
2018-09-25T23:03:49.233Z,57.36
2018-09-25T23:06:15.678Z,57.45
2018-09-25T23:08:42.527Z,57.46
2018-09-25T23:11:09.076Z,57.36
2018-09-25T23:13:35.564Z,58.71
2018-09-25T23:16:02.070Z,57.53
2018-09-25T23:18:28.679Z,57.09
2018-09-25T23:20:55.215Z,56.98
2018-09-25T23:23:21.661Z,56.26
2018-09-25T23:25:48.201Z,56.17
2018-09-25T23:28:14.727Z,56.02
2018-09-25T23:30:41.329Z,57.89
2018-09-25T23:35:40.131Z,59.22
2018-09-25T23:38:06.713Z,57.98
2018-09-25T23:40:33.193Z,57.49
2018-09-25T23:42:59.768Z,56.61
2018-09-25T23:45:26.912Z,56.32
2018-09-25T23:47:53.478Z,57.90
2018-09-25T23:50:19.955Z,58.14
2018-09-25T23:52:46.482Z,57.68
2018-09-25T23:55:13.017Z,57.31
2018-09-25T23:57:39.529Z,58.85
